createdAt,value
2023-02-27T00:01:41.563Z,20.36
2023-02-27T00:06:44.314Z,20.33
2023-02-27T00:11:48.459Z,20.30
2023-02-27T00:16:51.270Z,20.26
2023-02-27T00:21:54.048Z,20.21
2023-02-27T00:26:58.519Z,20.15
2023-02-27T00:32:01.382Z,20.09
2023-02-27T00:37:04.317Z,20.01
2023-02-27T00:42:08.499Z,19.94
2023-02-27T00:47:11.354Z,19.86
2023-02-27T00:52:15.639Z,19.79
2023-02-27T00:57:20.273Z,19.69
2023-02-27T01:02:23.254Z,19.54
2023-02-27T01:07:26.190Z,19.45
2023-02-27T01:12:31.014Z,19.37
2023-02-27T01:17:33.822Z,19.29
2023-02-27T01:22:36.606Z,19.25
2023-02-27T01:27:40.827Z,19.22
2023-02-27T01:32:43.873Z,19.12
2023-02-27T01:37:47.344Z,19.08
2023-02-27T01:42:51.736Z,19.04
2023-02-27T01:47:56.431Z,18.99
2023-02-27T01:53:00.901Z,18.94
2023-02-27T01:58:05.376Z,18.91
2023-02-27T02:03:12.711Z,18.87
2023-02-27T02:08:18.479Z,18.83
2023-02-27T02:13:23.653Z,18.81
2023-02-27T02:18:31.400Z,18.79
2023-02-27T02:24:09.654Z,18.80
2023-02-27T02:29:35.857Z,18.79
2023-02-27T02:35:00.914Z,18.72
2023-02-27T02:40:20.178Z,18.70
2023-02-27T02:45:27.677Z,18.71
2023-02-27T02:50:31.269Z,18.64
2023-02-27T02:55:36.388Z,18.66
2023-02-27T03:00:41.749Z,18.65
2023-02-27T03:05:47.962Z,18.64
2023-02-27T03:10:53.708Z,18.63
2023-02-27T03:15:59.129Z,18.61
2023-02-27T03:21:04.296Z,18.62
2023-02-27T03:26:08.520Z,18.61
2023-02-27T03:31:15.395Z,18.59
2023-02-27T03:36:21.621Z,18.58
2023-02-27T03:41:28.913Z,18.58
2023-02-27T03:46:44.319Z,18.56
2023-02-27T03:51:47.250Z,18.54
2023-02-27T03:56:51.949Z,18.52
2023-02-27T04:01:54.920Z,18.53
2023-02-27T04:07:17.397Z,18.49
2023-02-27T04:12:30.186Z,18.51
2023-02-27T04:17:33.115Z,18.52
2023-02-27T04:22:37.341Z,18.55
2023-02-27T04:27:41.968Z,18.52
2023-02-27T04:32:46.709Z,18.50
2023-02-27T04:37:50.822Z,18.52
2023-02-27T04:42:55.909Z,18.50
2023-02-27T04:48:00.130Z,18.46
2023-02-27T04:53:05.726Z,18.43
2023-02-27T04:58:11.566Z,18.42
2023-02-27T05:03:16.033Z,18.43
2023-02-27T05:08:22.028Z,18.43
2023-02-27T05:13:26.837Z,18.43
2023-02-27T05:18:29.631Z,18.43
2023-02-27T05:23:35.681Z,18.41
2023-02-27T05:28:44.689Z,18.40
2023-02-27T05:33:49.792Z,18.39
2023-02-27T05:38:54.219Z,18.40
2023-02-27T05:44:00.353Z,18.39
2023-02-27T05:49:05.032Z,18.36
2023-02-27T05:54:11.145Z,18.40
2023-02-27T05:59:17.264Z,18.39
2023-02-27T06:04:20.685Z,18.37
2023-02-27T06:09:23.513Z,18.36
2023-02-27T06:14:27.625Z,18.34
2023-02-27T06:19:30.447Z,18.35
2023-02-27T06:24:33.256Z,18.33
2023-02-27T06:29:37.438Z,18.33
2023-02-27T06:34:40.191Z,18.33
2023-02-27T06:39:43.051Z,18.34
2023-02-27T06:44:47.225Z,18.33
2023-02-27T06:49:50.136Z,18.32
2023-02-27T06:54:53.053Z,18.33
2023-02-27T06:59:57.291Z,18.33
2023-02-27T07:05:00.223Z,18.31
2023-02-27T07:10:09.203Z,18.33
2023-02-27T07:15:13.655Z,18.35
2023-02-27T07:20:16.601Z,18.35
2023-02-27T07:25:19.513Z,17.46
2023-02-27T07:30:23.818Z,14.79
2023-02-27T07:35:26.689Z,13.43
2023-02-27T07:40:29.597Z,13.65
2023-02-27T07:45:33.792Z,15.02
2023-02-27T07:50:36.577Z,15.71
2023-02-27T07:55:39.466Z,16.14
2023-02-27T08:00:43.586Z,16.39
2023-02-27T08:05:46.486Z,16.71
2023-02-27T08:10:50.483Z,17.16
2023-02-27T08:15:55.134Z,17.47
2023-02-27T08:20:58.046Z,17.65
2023-02-27T08:26:01.086Z,17.77
2023-02-27T08:31:07.000Z,17.81
2023-02-27T08:36:10.015Z,17.86
2023-02-27T08:41:12.928Z,17.88
2023-02-27T08:46:17.042Z,17.90
2023-02-27T08:51:19.831Z,17.89
2023-02-27T08:56:22.641Z,17.90
2023-02-27T09:01:29.775Z,17.90
2023-02-27T09:06:33.107Z,17.93
2023-02-27T09:11:38.437Z,17.93
2023-02-27T09:16:42.949Z,17.93
2023-02-27T09:21:45.934Z,16.08
2023-02-27T09:26:49.219Z,14.83
2023-02-27T09:31:53.694Z,15.37
2023-02-27T09:36:59.766Z,16.35
2023-02-27T09:42:03.609Z,17.01
2023-02-27T09:47:10.874Z,17.54
2023-02-27T09:52:14.219Z,17.89
2023-02-27T09:57:18.960Z,18.15
2023-02-27T10:02:31.262Z,18.34
2023-02-27T10:07:36.394Z,18.52
2023-02-27T10:12:55.852Z,18.68
2023-02-27T10:18:09.957Z,18.82
2023-02-27T10:23:27.212Z,18.89
2023-02-27T10:28:30.276Z,19.02
2023-02-27T10:33:36.001Z,19.09
2023-02-27T10:38:41.542Z,19.15
2023-02-27T10:43:44.523Z,19.20
2023-02-27T10:48:48.686Z,19.25
2023-02-27T10:53:52.870Z,19.27
2023-02-27T10:59:05.964Z,19.30
2023-02-27T11:04:10.178Z,19.30
2023-02-27T11:09:17.513Z,19.30
2023-02-27T11:14:28.847Z,19.32
2023-02-27T11:19:34.733Z,19.33
2023-02-27T11:24:37.688Z,19.34
2023-02-27T11:29:40.534Z,19.40
2023-02-27T11:34:49.360Z,19.44
2023-02-27T11:39:52.856Z,19.49
2023-02-27T11:44:57.446Z,19.48
2023-02-27T11:50:32.588Z,19.48
2023-02-27T11:55:35.345Z,19.47
2023-02-27T12:00:40.589Z,19.48
2023-02-27T12:05:46.764Z,19.47
2023-02-27T12:10:50.973Z,19.50
2023-02-27T12:15:56.615Z,19.53
2023-02-27T12:21:02.481Z,19.71
2023-02-27T12:26:06.855Z,19.66
2023-02-27T12:31:33.352Z,19.62
2023-02-27T12:36:37.494Z,19.61
2023-02-27T12:41:47.636Z,19.62
2023-02-27T12:46:51.678Z,19.64
2023-02-27T12:52:00.927Z,19.64
2023-02-27T12:57:12.277Z,19.60
2023-02-27T13:02:26.653Z,19.55
2023-02-27T13:07:32.482Z,19.48
2023-02-27T13:12:37.408Z,17.60
2023-02-27T13:17:41.351Z,16.39
2023-02-27T13:22:48.974Z,16.93
2023-02-27T13:27:52.983Z,17.60
2023-02-27T13:32:59.615Z,18.10
2023-02-27T13:38:05.395Z,18.44
2023-02-27T13:43:31.245Z,18.72
2023-02-27T13:48:54.848Z,19.02
2023-02-27T13:54:19.481Z,19.18
2023-02-27T13:59:23.693Z,19.24
2023-02-27T14:04:28.290Z,19.32
2023-02-27T14:09:35.000Z,19.44
2023-02-27T14:14:44.377Z,19.56
2023-02-27T14:20:03.439Z,18.26
2023-02-27T14:25:18.482Z,15.80
2023-02-27T14:30:41.656Z,17.81
2023-02-27T14:35:46.712Z,18.38
2023-02-27T14:40:56.702Z,18.66
2023-02-27T14:46:06.591Z,18.81
2023-02-27T14:51:09.408Z,18.89
2023-02-27T14:56:18.829Z,18.91
2023-02-27T15:01:21.640Z,18.93
2023-02-27T15:06:28.015Z,18.96
2023-02-27T15:11:32.565Z,18.92
2023-02-27T15:16:38.292Z,19.03
2023-02-27T15:21:42.324Z,19.03
2023-02-27T15:26:46.700Z,19.04
2023-02-27T15:31:49.729Z,19.00
2023-02-27T15:36:53.613Z,19.04
2023-02-27T15:41:59.406Z,19.06
2023-02-27T15:47:02.252Z,19.03
2023-02-27T15:52:06.689Z,19.02
2023-02-27T15:57:11.092Z,19.03
2023-02-27T16:02:17.443Z,19.05
2023-02-27T16:07:21.568Z,19.01
2023-02-27T16:12:33.156Z,19.05
2023-02-27T16:17:35.969Z,19.15
2023-02-27T16:22:39.293Z,19.06
2023-02-27T16:27:43.449Z,19.04
2023-02-27T16:32:46.611Z,19.04
2023-02-27T16:37:50.240Z,19.07
2023-02-27T16:42:54.635Z,19.02
2023-02-27T16:47:58.139Z,19.16
2023-02-27T16:53:00.873Z,19.11
2023-02-27T16:58:06.326Z,19.04
2023-02-27T17:03:09.156Z,19.01
2023-02-27T17:08:12.773Z,19.01
2023-02-27T17:13:17.344Z,19.04
2023-02-27T17:18:20.271Z,19.02
2023-02-27T17:23:23.093Z,19.04
2023-02-27T17:28:27.314Z,18.62
2023-02-27T17:33:32.042Z,18.67
2023-02-27T17:38:34.952Z,18.73
2023-02-27T17:43:39.721Z,18.81
2023-02-27T17:48:42.568Z,18.93
2023-02-27T17:53:45.328Z,19.02
2023-02-27T17:58:49.644Z,19.08
2023-02-27T18:03:52.644Z,19.18
2023-02-27T18:08:55.507Z,19.23
2023-02-27T18:14:00.532Z,19.28
2023-02-27T18:19:03.905Z,19.32
2023-02-27T18:24:07.042Z,19.35
2023-02-27T18:29:11.942Z,19.37
2023-02-27T18:34:14.672Z,19.41
2023-02-27T18:39:17.457Z,19.48
2023-02-27T18:44:21.881Z,19.51
2023-02-27T18:49:24.868Z,19.54
2023-02-27T18:54:27.652Z,19.58
2023-02-27T18:59:31.799Z,19.63
2023-02-27T19:04:34.615Z,19.63
2023-02-27T19:09:37.557Z,19.61
2023-02-27T19:14:41.963Z,19.59
2023-02-27T19:19:45.047Z,19.59
2023-02-27T19:24:48.199Z,19.59
2023-02-27T19:29:52.589Z,19.63
2023-02-27T19:34:55.473Z,19.63
2023-02-27T19:39:58.316Z,19.60
2023-02-27T19:45:02.570Z,19.62
2023-02-27T19:50:07.003Z,19.59
2023-02-27T19:55:10.256Z,19.53
2023-02-27T20:00:16.513Z,19.49
2023-02-27T20:05:19.409Z,19.40
2023-02-27T20:10:22.365Z,19.38
2023-02-27T20:15:26.488Z,19.35
2023-02-27T20:20:31.728Z,19.28
2023-02-27T20:25:34.730Z,19.21
2023-02-27T20:30:40.019Z,19.15
2023-02-27T20:35:42.875Z,19.09
2023-02-27T20:40:45.834Z,19.05
2023-02-27T20:45:50.064Z,19.01
2023-02-27T20:50:52.860Z,18.97
2023-02-27T20:55:55.599Z,18.94
2023-02-27T21:00:59.770Z,18.93
2023-02-27T21:06:02.574Z,18.86
2023-02-27T21:11:09.361Z,18.86
2023-02-27T21:16:14.782Z,18.86
2023-02-27T21:21:18.650Z,18.80
2023-02-27T21:26:22.585Z,18.79
2023-02-27T21:31:27.782Z,18.79
2023-02-27T21:36:33.397Z,18.76
2023-02-27T21:41:36.252Z,18.74
2023-02-27T21:46:40.367Z,18.72
2023-02-27T21:51:43.374Z,18.70
2023-02-27T21:56:46.838Z,18.70
2023-02-27T22:01:50.922Z,18.71
2023-02-27T22:06:53.793Z,18.69
2023-02-27T22:11:56.685Z,18.69
2023-02-27T22:17:00.932Z,18.68
2023-02-27T22:22:03.659Z,18.66
2023-02-27T22:27:06.397Z,18.66
2023-02-27T22:32:10.553Z,18.65
2023-02-27T22:37:16.024Z,18.65
2023-02-27T22:42:18.878Z,18.63
2023-02-27T22:47:23.034Z,18.62
2023-02-27T22:52:25.760Z,18.63
2023-02-27T22:57:28.517Z,18.63
2023-02-27T23:02:33.976Z,18.61
2023-02-27T23:07:36.922Z,18.66
2023-02-27T23:12:39.681Z,18.61
2023-02-27T23:17:56.560Z,18.59
2023-02-27T23:23:00.530Z,18.58
2023-02-27T23:28:03.387Z,18.56
2023-02-27T23:33:07.647Z,18.55
2023-02-27T23:38:10.432Z,18.55
2023-02-27T23:43:13.283Z,18.62
2023-02-27T23:48:17.468Z,18.60
2023-02-27T23:53:20.613Z,18.61
2023-02-27T23:58:23.427Z,18.65
